Time;durP1;ratioP1;P1;durP2;ratioP2;P2;SDS_P1;SDS_P2;PMS_P1;PMS_P2;Temp;Humidity;BMP_temperature;BMP_pressure;BME280_temperature;BME280_humidity;BME280_pressure;Samples;Min_cycle;Max_cycle;Signal;HPM_P1;HPM_P2
2022/06/24 00:02:02;;;;;;;;;;;21.60;99.90;;;;;;5119659;28;19924;-77
2022/06/24 00:04:31;;;;;;;;;;;21.40;99.90;;;;;;5121382;28;19926;-78
2022/06/24 00:06:58;;;;;;;;;;;21.30;99.90;;;;;;5118976;28;19924;-77
2022/06/24 00:09:29;;;;;;;;;;;21.30;99.90;;;;;;5119575;28;19920;-76
2022/06/24 00:12:05;;;;;;;;;;;21.20;99.90;;;;;;5121414;28;19908;-78
2022/06/24 00:14:32;;;;;;;;;;;21.30;99.90;;;;;;5093189;28;19931;-74
2022/06/24 00:17:00;;;;;;;;;;;21.40;99.90;;;;;;5093194;28;19928;-74
2022/06/24 00:19:28;;;;;;;;;;;21.30;99.90;;;;;;5092730;28;19923;-74
2022/06/24 00:22:03;;;;;;;;;;;21.30;99.90;;;;;;5092444;28;20019;-74
2022/06/24 00:24:32;;;;;;;;;;;21.30;99.90;;;;;;5091867;28;19958;-74
2022/06/24 00:26:59;;;;;;;;;;;21.20;99.90;;;;;;5091376;28;19951;-74
2022/06/24 00:29:27;;;;;;;;;;;21.20;99.90;;;;;;5106542;28;19924;-73
2022/06/24 00:32:00;;;;;;;;;;;21.20;99.90;;;;;;5089316;28;19964;-74
2022/06/24 00:34:27;;;;;;;;;;;21.20;99.90;;;;;;5088001;28;19927;-74
2022/06/24 00:36:53;;;;;;;;;;;21.20;99.90;;;;;;5076431;28;19934;-74
2022/06/24 00:39:20;;;;;;;;;;;21.20;99.90;;;;;;5089962;28;20019;-73
2022/06/24 00:41:51;;;;;;;;;;;21.20;99.90;;;;;;5089343;28;19924;-73
2022/06/24 00:44:20;;;;;;;;;;;21.20;99.90;;;;;;5089125;28;19936;-76
2022/06/24 00:46:47;;;;;;;;;;;21.20;99.90;;;;;;5087469;28;20320;-76
2022/06/24 00:49:15;;;;;;;;;;;21.10;99.90;;;;;;5091161;28;19924;-76
2022/06/24 00:51:42;;;;;;;;;;;21.10;99.90;;;;;;5090844;28;19924;-76
2022/06/24 00:54:10;;;;;;;;;;;21.10;99.90;;;;;;5089960;28;20343;-77
2022/06/24 00:56:37;;;;;;;;;;;21.10;99.90;;;;;;5092232;28;19954;-78
2022/06/24 00:59:06;;;;;;;;;;;21.10;99.90;;;;;;5086147;28;19920;-76
2022/06/24 01:01:34;;;;;;;;;;;21.10;99.90;;;;;;5087722;28;19924;-77
2022/06/24 01:04:01;;;;;;;;;;;21.10;99.90;;;;;;5090934;28;19977;-76
2022/06/24 01:06:28;;;;;;;;;;;21.10;99.90;;;;;;5091993;28;19931;-76
2022/06/24 01:08:55;;;;;;;;;;;21.00;99.90;;;;;;5091253;28;19978;-75
2022/06/24 01:11:25;;;;;;;;;;;21.00;99.90;;;;;;5087971;28;19920;-76
2022/06/24 01:13:52;;;;;;;;;;;20.90;99.90;;;;;;5088829;28;19919;-75
2022/06/24 01:16:22;;;;;;;;;;;20.90;99.90;;;;;;5089534;28;19935;-76
2022/06/24 01:18:50;;;;;;;;;;;20.80;99.90;;;;;;5089995;28;19978;-76
2022/06/24 01:21:31;;;;;;;;;;;20.80;99.90;;;;;;5088605;28;19939;-75
2022/06/24 01:24:03;;;;;;;;;;;20.80;99.90;;;;;;5086853;28;19927;-76
2022/06/24 01:26:29;;;;;;;;;;;20.80;99.90;;;;;;5087589;28;20463;-75
2022/06/24 01:28:56;;;;;;;;;;;20.80;99.90;;;;;;5090269;28;19953;-77
2022/06/24 01:31:23;;;;;;;;;;;20.80;99.90;;;;;;5087207;28;20331;-76
2022/06/24 01:33:49;;;;;;;;;;;20.80;99.90;;;;;;5090258;28;19959;-76
2022/06/24 01:36:16;;;;;;;;;;;20.70;99.90;;;;;;5090889;28;20578;-76
2022/06/24 01:38:44;;;;;;;;;;;20.70;99.90;;;;;;5089158;28;19924;-76
2022/06/24 01:41:11;;;;;;;;;;;20.70;99.90;;;;;;5086023;28;20045;-77
2022/06/24 01:43:38;;;;;;;;;;;20.70;99.90;;;;;;5089888;28;19931;-76
2022/06/24 01:46:04;;;;;;;;;;;20.70;99.90;;;;;;5086523;28;19931;-76
2022/06/24 01:48:31;;;;;;;;;;;20.70;99.90;;;;;;5088123;28;19924;-76
2022/06/24 01:50:58;;;;;;;;;;;20.60;99.90;;;;;;5086781;28;19931;-76
2022/06/24 01:53:24;;;;;;;;;;;20.60;99.90;;;;;;5087719;28;19970;-76
2022/06/24 01:55:52;;;;;;;;;;;20.60;99.90;;;;;;5087891;28;19923;-76
2022/06/24 01:58:19;;;;;;;;;;;20.60;99.90;;;;;;5087488;28;19923;-76
2022/06/24 02:00:46;;;;;;;;;;;20.60;99.90;;;;;;5089822;28;19928;-78
2022/06/24 02:03:12;;;;;;;;;;;20.60;99.90;;;;;;5102247;28;19980;-76
2022/06/24 02:05:40;;;;;;;;;;;20.60;99.90;;;;;;5089669;28;19931;-76
2022/06/24 02:08:07;;;;;;;;;;;20.60;99.90;;;;;;5086631;28;19989;-73
2022/06/24 02:13:28;;;;;;;;;;;20.60;99.90;;;;;;5087397;28;19923;-73
2022/06/24 02:15:55;;;;;;;;;;;20.60;99.90;;;;;;5087270;28;19977;-73
2022/06/24 02:18:22;;;;;;;;;;;20.60;99.90;;;;;;5088034;28;19924;-74
2022/06/24 02:20:50;;;;;;;;;;;20.60;99.90;;;;;;5085274;28;19935;-73
2022/06/24 02:23:18;;;;;;;;;;;20.60;99.90;;;;;;5085390;28;19927;-74
2022/06/24 02:25:45;;;;;;;;;;;20.70;99.90;;;;;;5086636;28;20410;-73
2022/06/24 02:28:12;;;;;;;;;;;22.50;99.90;;;;;;5086582;28;19924;-74
2022/06/24 02:30:40;;;;;;;;;;;20.70;99.90;;;;;;5085705;28;19927;-73
2022/06/24 02:33:07;;;;;;;;;;;20.70;99.90;;;;;;5086121;28;20409;-74
2022/06/24 02:35:34;;;;;;;;;;;20.70;99.90;;;;;;5088722;28;19930;-74
2022/06/24 02:38:01;;;;;;;;;;;20.70;99.90;;;;;;5087013;28;19926;-73
2022/06/24 02:43:13;;;;;;;;;;;20.70;99.90;;;;;;5084971;28;19920;-74
2022/06/24 02:45:41;;;;;;;;;;;20.60;99.90;;;;;;5086937;28;20590;-74
2022/06/24 02:48:09;;;;;;;;;;;20.60;99.90;;;;;;5103270;28;19923;-73
2022/06/24 02:50:39;;;;;;;;;;;20.60;99.90;;;;;;5087578;28;19924;-74
2022/06/24 02:53:06;;;;;;;;;;;20.60;99.90;;;;;;5084981;28;19924;-72
2022/06/24 02:55:33;;;;;;;;;;;20.60;99.90;;;;;;5085468;28;19924;-74
2022/06/24 02:57:59;;;;;;;;;;;20.50;99.90;;;;;;5089085;28;19923;-74
2022/06/24 03:00:26;;;;;;;;;;;20.50;99.90;;;;;;5088754;28;19924;-73
2022/06/24 03:02:54;;;;;;;;;;;20.50;99.90;;;;;;5088149;28;20586;-74
2022/06/24 03:05:21;;;;;;;;;;;20.50;99.90;;;;;;5086144;28;19931;-74
2022/06/24 03:07:48;;;;;;;;;;;20.60;99.90;;;;;;5087348;28;19952;-74
2022/06/24 03:10:15;;;;;;;;;;;20.50;99.90;;;;;;5086747;28;20015;-75
2022/06/24 03:12:42;;;;;;;;;;;20.50;99.90;;;;;;5088193;28;19927;-75
2022/06/24 03:15:09;;;;;;;;;;;20.60;99.90;;;;;;5085245;28;19924;-74
2022/06/24 03:17:36;;;;;;;;;;;20.60;99.90;;;;;;5087690;28;19926;-74
2022/06/24 03:20:05;;;;;;;;;;;20.60;99.90;;;;;;5087177;28;19924;-74
2022/06/24 03:22:32;;;;;;;;;;;20.60;99.90;;;;;;5086879;28;19989;-74
2022/06/24 03:24:58;;;;;;;;;;;20.60;99.90;;;;;;5085725;28;19923;-72
2022/06/24 03:27:25;;;;;;;;;;;20.60;99.90;;;;;;5084464;28;19927;-73
2022/06/24 03:29:52;;;;;;;;;;;20.60;99.90;;;;;;5085303;28;19920;-73
2022/06/24 03:32:19;;;;;;;;;;;20.60;99.90;;;;;;5087117;28;19924;-73
2022/06/24 03:34:45;;;;;;;;;;;20.60;99.90;;;;;;5083847;28;19920;-73
2022/06/24 03:37:14;;;;;;;;;;;20.60;99.90;;;;;;5085743;28;19920;-73
2022/06/24 03:39:40;;;;;;;;;;;20.50;99.90;;;;;;5082045;28;19919;-73
2022/06/24 03:42:07;;;;;;;;;;;20.50;99.90;;;;;;5082333;28;20334;-72
2022/06/24 03:44:34;;;;;;;;;;;20.50;99.90;;;;;;5081959;28;19927;-73
2022/06/24 03:47:01;;;;;;;;;;;20.50;99.90;;;;;;5085653;28;19926;-72
2022/06/24 03:49:28;;;;;;;;;;;20.50;99.90;;;;;;5084918;28;19989;-74
2022/06/24 03:51:55;;;;;;;;;;;20.40;99.90;;;;;;5087301;28;19930;-74
2022/06/24 03:54:23;;;;;;;;;;;20.40;99.90;;;;;;5086195;28;19931;-75
2022/06/24 03:56:50;;;;;;;;;;;20.40;99.90;;;;;;5087048;28;20370;-75
2022/06/24 03:59:16;;;;;;;;;;;20.40;99.90;;;;;;5086670;28;19926;-76
2022/06/24 04:01:43;;;;;;;;;;;20.40;99.90;;;;;;5085888;28;20413;-74
2022/06/24 04:04:10;;;;;;;;;;;20.40;99.90;;;;;;5084843;28;19924;-75
2022/06/24 04:06:38;;;;;;;;;;;20.40;99.90;;;;;;5087376;28;19924;-74
2022/06/24 04:09:04;;;;;;;;;;;20.30;99.90;;;;;;5102484;28;20388;-76
2022/06/24 04:11:32;;;;;;;;;;;20.30;99.90;;;;;;5086693;28;19924;-75
2022/06/24 04:13:59;;;;;;;;;;;20.30;99.90;;;;;;5086533;28;19924;-73
2022/06/24 04:16:26;;;;;;;;;;;20.30;99.90;;;;;;5084910;28;20002;-73
2022/06/24 04:18:53;;;;;;;;;;;19.50;99.90;;;;;;5085511;28;20305;-73
2022/06/24 04:21:20;;;;;;;;;;;20.30;99.90;;;;;;5086389;28;20573;-72
2022/06/24 04:23:49;;;;;;;;;;;20.20;99.90;;;;;;5086301;28;20440;-76
2022/06/24 04:26:16;;;;;;;;;;;20.20;99.90;;;;;;5085865;28;19923;-77
2022/06/24 04:28:45;;;;;;;;;;;20.10;99.90;;;;;;5087627;28;19984;-77
2022/06/24 04:31:12;;;;;;;;;;;20.10;99.90;;;;;;5086385;28;19927;-76
2022/06/24 04:33:39;;;;;;;;;;;20.00;99.90;;;;;;5088995;28;19920;-76
2022/06/24 04:36:10;;;;;;;;;;;19.90;99.90;;;;;;5095814;28;19947;-76
2022/06/24 04:38:37;;;;;;;;;;;19.90;99.90;;;;;;5091222;28;19924;-76
2022/06/24 04:41:10;;;;;;;;;;;19.90;99.90;;;;;;5090037;28;19931;-76
2022/06/24 04:43:36;;;;;;;;;;;19.80;99.90;;;;;;5090199;28;19924;-76
2022/06/24 04:46:04;;;;;;;;;;;19.80;99.90;;;;;;5090264;28;19920;-76
2022/06/24 04:48:31;;;;;;;;;;;19.80;99.90;;;;;;5090766;28;19928;-76
2022/06/24 04:50:58;;;;;;;;;;;19.80;99.90;;;;;;5086984;28;19938;-76
2022/06/24 04:53:25;;;;;;;;;;;19.80;99.90;;;;;;5090169;28;19920;-77
2022/06/24 04:55:51;;;;;;;;;;;19.90;99.90;;;;;;5092340;28;20389;-74
2022/06/24 04:58:18;;;;;;;;;;;19.90;99.90;;;;;;5097798;28;19977;-74
2022/06/24 05:00:45;;;;;;;;;;;20.00;99.90;;;;;;5092778;28;20281;-74
2022/06/24 05:03:13;;;;;;;;;;;20.00;99.90;;;;;;5096543;28;19939;-73
2022/06/24 05:05:39;;;;;;;;;;;20.00;99.90;;;;;;5098417;28;20304;-74
2022/06/24 05:08:06;;;;;;;;;;;20.00;99.90;;;;;;5094018;28;19928;-73
2022/06/24 05:10:33;;;;;;;;;;;20.10;99.90;;;;;;5091645;28;19946;-74
2022/06/24 05:13:00;;;;;;;;;;;20.20;99.90;;;;;;5088339;28;19927;-74
2022/06/24 05:15:26;;;;;;;;;;;20.20;99.90;;;;;;5086835;28;19989;-73
2022/06/24 05:17:53;;;;;;;;;;;20.20;99.90;;;;;;5097582;28;20351;-73
2022/06/24 05:20:21;;;;;;;;;;;20.20;99.90;;;;;;5088102;28;19931;-73
2022/06/24 05:22:48;;;;;;;;;;;20.30;99.90;;;;;;5093934;28;19990;-74
2022/06/24 05:25:15;;;;;;;;;;;20.30;99.90;;;;;;5086654;28;19946;-73
2022/06/24 05:27:42;;;;;;;;;;;20.30;99.90;;;;;;5088537;28;19924;-73
2022/06/24 05:30:10;;;;;;;;;;;20.30;99.90;;;;;;5087106;28;19924;-73
2022/06/24 05:32:36;;;;;;;;;;;20.30;99.90;;;;;;5090185;28;19931;-73
2022/06/24 05:35:06;;;;;;;;;;;20.30;99.90;;;;;;5087900;28;19997;-73
2022/06/24 05:37:35;;;;;;;;;;;20.30;99.90;;;;;;5090195;28;20238;-73
2022/06/24 05:40:02;;;;;;;;;;;20.30;99.90;;;;;;5088171;28;19938;-74
2022/06/24 05:42:28;;;;;;;;;;;20.30;99.90;;;;;;5091747;28;19919;-74
2022/06/24 05:44:55;;;;;;;;;;;20.30;99.90;;;;;;5096135;28;20308;-73
2022/06/24 05:47:22;;;;;;;;;;;20.40;99.90;;;;;;5087673;28;20012;-73
2022/06/24 05:49:48;;;;;;;;;;;20.40;99.90;;;;;;5088168;28;19920;-72
2022/06/24 05:52:15;;;;;;;;;;;20.50;99.90;;;;;;5088676;28;20413;-75
2022/06/24 05:57:28;;;;;;;;;;;20.70;99.90;;;;;;5090862;28;19951;-76
2022/06/24 05:59:55;;;;;;;;;;;20.80;99.90;;;;;;5093033;28;20613;-78
2022/06/24 06:02:22;;;;;;;;;;;20.80;99.90;;;;;;5089522;28;20322;-76
2022/06/24 06:04:49;;;;;;;;;;;20.80;99.90;;;;;;5093335;28;19920;-76
2022/06/24 06:07:16;;;;;;;;;;;20.90;99.90;;;;;;5089975;28;20370;-75
2022/06/24 06:09:44;;;;;;;;;;;20.90;99.90;;;;;;5090364;28;20439;-75
2022/06/24 06:12:11;;;;;;;;;;;20.90;99.90;;;;;;5087508;28;19920;-75
2022/06/24 06:14:39;;;;;;;;;;;20.80;99.90;;;;;;5088089;28;19928;-75
2022/06/24 06:17:06;;;;;;;;;;;20.80;99.90;;;;;;5089843;28;19965;-75
2022/06/24 06:19:34;;;;;;;;;;;20.80;99.90;;;;;;5088221;28;19980;-75
2022/06/24 06:22:02;;;;;;;;;;;20.70;99.90;;;;;;5089101;28;19955;-75
2022/06/24 06:24:30;;;;;;;;;;;20.70;99.90;;;;;;5087155;28;19920;-75
2022/06/24 06:26:58;;;;;;;;;;;20.60;99.90;;;;;;5095192;28;19927;-75
2022/06/24 06:29:25;;;;;;;;;;;20.50;99.90;;;;;;5087697;28;19939;-76
2022/06/24 06:31:52;;;;;;;;;;;20.40;99.90;;;;;;5086257;28;19931;-72
2022/06/24 06:34:20;;;;;;;;;;;20.40;99.90;;;;;;5081412;28;19920;-72
2022/06/24 06:36:46;;;;;;;;;;;20.30;99.90;;;;;;5088662;28;20372;-73
2022/06/24 06:39:13;;;;;;;;;;;20.20;99.90;;;;;;5087592;28;20292;-72
2022/06/24 06:41:40;;;;;;;;;;;20.20;99.90;;;;;;5086302;28;19923;-73
2022/06/24 06:44:08;;;;;;;;;;;20.20;99.90;;;;;;5087139;28;19987;-73
2022/06/24 06:46:35;;;;;;;;;;;20.20;99.90;;;;;;5093589;28;19924;-74
2022/06/24 06:49:04;;;;;;;;;;;20.20;99.90;;;;;;5096690;28;19967;-75
2022/06/24 06:51:32;;;;;;;;;;;20.20;99.90;;;;;;5103103;28;20381;-75
2022/06/24 06:54:00;;;;;;;;;;;20.20;99.90;;;;;;5094484;28;19989;-75
2022/06/24 06:56:26;;;;;;;;;;;20.10;99.90;;;;;;5093717;28;19988;-75
2022/06/24 06:58:53;;;;;;;;;;;20.00;99.90;;;;;;5088856;28;19927;-75
2022/06/24 07:01:21;;;;;;;;;;;20.00;99.90;;;;;;5089334;28;19923;-76
2022/06/24 07:03:48;;;;;;;;;;;20.00;99.90;;;;;;5083721;28;20452;-75
2022/06/24 07:06:15;;;;;;;;;;;19.90;99.90;;;;;;5104383;27;19953;-76
2022/06/24 07:08:42;;;;;;;;;;;19.90;99.90;;;;;;5085085;28;19920;-75
2022/06/24 07:11:08;;;;;;;;;;;19.90;99.90;;;;;;5085492;28;19977;-76
2022/06/24 07:13:35;;;;;;;;;;;19.90;99.90;;;;;;5093571;28;19920;-75
2022/06/24 07:16:02;;;;;;;;;;;19.90;99.90;;;;;;5098153;28;20381;-75
2022/06/24 07:18:30;;;;;;;;;;;19.90;99.90;;;;;;5086709;28;19931;-75
2022/06/24 07:20:57;;;;;;;;;;;19.90;99.90;;;;;;5086913;28;19969;-76
2022/06/24 07:23:24;;;;;;;;;;;19.90;99.90;;;;;;5088343;28;20503;-75
2022/06/24 07:25:51;;;;;;;;;;;19.90;99.90;;;;;;5087240;28;19963;-75
2022/06/24 07:28:18;;;;;;;;;;;19.90;99.90;;;;;;5088827;28;19924;-76
2022/06/24 07:30:45;;;;;;;;;;;20.00;99.90;;;;;;5086138;28;19924;-77
2022/06/24 07:33:12;;;;;;;;;;;20.00;99.90;;;;;;5086522;28;19936;-75
2022/06/24 07:35:40;;;;;;;;;;;20.10;99.90;;;;;;5090163;28;19952;-76
2022/06/24 07:38:06;;;;;;;;;;;20.20;99.90;;;;;;5084169;28;19923;-73
2022/06/24 07:40:33;;;;;;;;;;;20.20;99.90;;;;;;5078512;28;19924;-73
2022/06/24 07:43:00;;;;;;;;;;;20.20;99.90;;;;;;5094631;28;19924;-73
2022/06/24 07:45:26;;;;;;;;;;;20.10;99.90;;;;;;5082976;28;19924;-72
2022/06/24 07:47:53;;;;;;;;;;;20.00;99.90;;;;;;5083707;28;20006;-73
2022/06/24 07:50:20;;;;;;;;;;;20.00;99.90;;;;;;5085373;28;19924;-73
2022/06/24 07:52:48;;;;;;;;;;;19.90;99.90;;;;;;5084704;28;20376;-73
2022/06/24 07:57:59;;;;;;;;;;;19.90;99.90;;;;;;5085201;28;19919;-73
2022/06/24 08:00:26;;;;;;;;;;;19.90;99.90;;;;;;5078215;28;19927;-73
2022/06/24 08:02:53;;;;;;;;;;;19.90;99.90;;;;;;5084168;28;19942;-73
2022/06/24 08:05:20;;;;;;;;;;;19.80;99.90;;;;;;5083970;28;19931;-72
2022/06/24 08:07:49;;;;;;;;;;;19.80;99.90;;;;;;5077635;28;19993;-72
2022/06/24 08:10:15;;;;;;;;;;;19.80;99.90;;;;;;5085539;28;19938;-72
2022/06/24 08:12:42;;;;;;;;;;;19.80;99.90;;;;;;5080957;28;19924;-73
2022/06/24 08:15:09;;;;;;;;;;;19.70;99.90;;;;;;5086656;28;19927;-72
2022/06/24 08:17:36;;;;;;;;;;;19.70;99.90;;;;;;5089621;28;20000;-76
2022/06/24 08:20:03;;;;;;;;;;;19.50;99.90;;;;;;5089044;28;20010;-72
2022/06/24 08:22:30;;;;;;;;;;;19.50;99.90;;;;;;5089220;28;19960;-73
2022/06/24 08:24:58;;;;;;;;;;;19.40;99.90;;;;;;5087228;28;19920;-74
2022/06/24 08:27:25;;;;;;;;;;;19.40;99.90;;;;;;5088749;28;19924;-73
2022/06/24 08:29:51;;;;;;;;;;;19.30;99.90;;;;;;5089268;28;20083;-74
2022/06/24 08:32:18;;;;;;;;;;;19.30;99.90;;;;;;5086195;28;19931;-75
2022/06/24 08:34:45;;;;;;;;;;;19.30;99.90;;;;;;5086511;28;19920;-74
2022/06/24 08:37:12;;;;;;;15.70;6.40;;;19.40;99.90;;;;;;5085977;28;19950;-75
2022/06/24 08:39:39;;;;;;;13.97;5.80;;;19.50;99.90;;;;;;5088223;28;20556;-75
2022/06/24 08:42:12;;;;;;;15.50;6.10;;;19.50;99.90;;;;;;5090050;28;20924;-75
2022/06/24 08:44:40;;;;;;;14.43;6.27;;;19.70;99.90;;;;;;5087701;28;20632;-75
2022/06/24 08:47:07;;;;;;;15.70;5.90;;;19.80;99.90;;;;;;5090018;28;20338;-78
2022/06/24 08:49:34;;;;;;;12.30;5.00;;;20.00;99.90;;;;;;5088986;28;20636;-74
2022/06/24 08:52:06;;;;;;;15.57;5.60;;;20.10;99.90;;;;;;5087328;28;20210;-73
2022/06/24 08:54:35;;;;;;;15.83;5.50;;;20.20;99.90;;;;;;5085982;28;20219;-74
2022/06/24 08:57:02;;;;;;;16.40;6.30;;;20.30;99.90;;;;;;5087107;28;20222;-73
2022/06/24 08:59:31;;;;;;;14.47;5.83;;;20.40;99.90;;;;;;5086441;28;20246;-76
2022/06/24 09:01:58;;;;;;;14.40;5.63;;;20.50;99.90;;;;;;5086879;28;20213;-75
2022/06/24 09:04:25;;;;;;;15.87;6.13;;;20.50;99.90;;;;;;5085400;28;20238;-74
2022/06/24 09:06:52;;;;;;;16.50;5.60;;;20.60;99.90;;;;;;5086964;28;20316;-74
2022/06/24 09:09:24;;;;;;;12.43;5.67;;;20.60;99.90;;;;;;5087924;28;20307;-74
2022/06/24 09:11:55;;;;;;;13.93;5.80;;;20.80;99.90;;;;;;5084647;28;20252;-74
2022/06/24 09:14:22;;;;;;;10.60;4.97;;;20.70;99.90;;;;;;5102156;28;20296;-75
2022/06/24 09:16:50;;;;;;;10.50;5.03;;;20.70;99.90;;;;;;5088460;28;20216;-76
2022/06/24 09:19:17;;;;;;;13.77;5.47;;;21.10;99.90;;;;;;5088458;28;20229;-76
2022/06/24 09:21:44;;;;;;;12.57;5.40;;;20.80;99.90;;;;;;5085152;28;20592;-75
2022/06/24 09:24:11;;;;;;;14.07;6.03;;;22.80;99.90;;;;;;5088304;28;20205;-75
2022/06/24 09:26:42;;;;;;;14.67;6.37;;;21.10;99.90;;;;;;5092206;28;20241;-76
2022/06/24 09:29:11;;;;;;;13.83;5.60;;;21.30;99.90;;;;;;5090967;28;20769;-76
2022/06/24 09:31:39;;;;;;;14.83;5.57;;;21.40;99.90;;;;;;5086371;28;20221;-74
2022/06/24 09:34:13;;;;;;;14.70;6.10;;;21.60;99.90;;;;;;5088510;28;20628;-75
2022/06/24 09:36:41;;;;;;;11.30;5.00;;;21.80;99.90;;;;;;5088210;28;20299;-74
2022/06/24 09:39:11;;;;;;;11.83;5.10;;;21.90;99.90;;;;;;5088665;28;20220;-74
2022/06/24 09:41:45;;;;;;;10.57;5.43;;;22.00;99.90;;;;;;5085872;28;20205;-75
2022/06/24 09:44:13;;;;;;;12.63;5.23;;;22.20;99.90;;;;;;5082383;28;20218;-75
2022/06/24 09:46:40;;;;;;;12.83;6.10;;;22.40;99.90;;;;;;5088234;28;20207;-75
2022/06/24 09:49:10;;;;;;;15.80;7.23;;;22.70;99.90;;;;;;5089053;28;20238;-77
2022/06/24 09:51:39;;;;;;;13.67;7.23;;;22.80;99.90;;;;;;5086751;28;20259;-76
2022/06/24 09:54:07;;;;;;;14.03;7.20;;;23.10;99.90;;;;;;5086316;28;20215;-75
2022/06/24 09:56:34;;;;;;;17.77;6.87;;;23.40;99.90;;;;;;5084654;28;20203;-76
2022/06/24 10:01:47;;;;;;;13.87;7.10;;;24.00;99.90;;;;;;5086956;28;20337;-75
2022/06/24 10:04:15;;;;;;;16.20;7.43;;;24.20;99.90;;;;;;5080432;28;20213;-74
2022/06/24 10:06:46;;;;;;;12.90;7.43;;;24.30;99.90;;;;;;5087719;28;20306;-75
2022/06/24 10:09:14;;;;;;;15.00;8.13;;;24.50;99.90;;;;;;5083486;28;20231;-75
2022/06/24 10:11:44;;;;;;;13.23;7.37;;;24.70;99.90;;;;;;5074082;28;20577;-74
2022/06/24 10:14:12;;;;;;;10.83;7.07;;;25.20;99.90;;;;;;5085942;28;20207;-74
2022/06/24 10:16:42;;;;;;;11.73;7.17;;;25.80;99.90;;;;;;5085771;28;20223;-74
2022/06/24 10:19:12;;;;;;;10.77;6.80;;;26.40;99.90;;;;;;5086844;28;20328;-74
2022/06/24 10:21:40;;;;;;;10.80;6.53;;;27.10;99.90;;;;;;5086619;28;20301;-74
2022/06/24 10:24:16;;;;;;;13.50;8.80;;;27.70;99.90;;;;;;5085551;28;20220;-74
2022/06/24 10:26:46;;;;;;;15.40;10.90;;;28.10;99.90;;;;;;5086103;28;20213;-75
2022/06/24 10:29:28;;;;;;;17.87;10.50;;;28.30;99.90;;;;;;5086761;28;20218;-73
2022/06/24 10:32:06;;;;;;;15.77;10.90;;;28.30;99.90;;;;;;5083278;28;20298;-73
2022/06/24 10:34:41;;;;;;;15.97;11.17;;;28.00;99.90;;;;;;5082510;28;21132;-73
2022/06/24 10:37:27;;;;;;;13.50;8.90;;;27.60;99.90;;;;;;5082597;28;20224;-76
2022/06/24 10:39:58;;;;;;;10.30;6.43;;;27.20;99.90;;;;;;5083152;28;20328;-73
2022/06/24 10:42:26;;;;;;;12.97;7.77;;;26.90;99.90;;;;;;5086175;28;20213;-73
2022/06/24 10:44:56;;;;;;;10.27;5.80;;;26.60;99.90;;;;;;5084067;28;20736;-74
2022/06/24 10:47:51;;;;;;;15.00;6.87;;;26.50;99.90;;;;;;5086830;28;20303;-75
2022/06/24 10:50:21;;;;;;;13.63;5.90;;;26.40;99.90;;;;;;5089120;28;20212;-78
2022/06/24 10:53:02;;;;;;;11.60;6.07;;;26.40;99.90;;;;;;5093699;28;20287;-77
2022/06/24 10:55:36;;;;;;;14.40;6.10;;;26.40;99.90;;;;;;5089439;28;20212;-74
2022/06/24 10:58:09;;;;;;;12.97;6.03;;;26.50;99.90;;;;;;5088516;28;20206;-74
2022/06/24 11:00:51;;;;;;;9.70;6.30;;;26.50;99.90;;;;;;5087220;28;20202;-74
2022/06/24 11:03:38;;;;;;;8.77;5.07;;;26.60;99.90;;;;;;5085505;28;20209;-74
2022/06/24 11:06:09;;;;;;;7.37;4.53;;;26.60;99.90;;;;;;5080523;28;20578;-74
2022/06/24 11:08:38;;;;;;;10.83;5.80;;;26.60;99.90;;;;;;5085440;28;20222;-71
2022/06/24 11:11:06;;;;;;;10.97;6.80;;;26.70;99.90;;;;;;5080032;28;20228;-71
2022/06/24 11:13:33;;;;;;;11.57;5.57;;;26.90;99.90;;;;;;5084669;28;20212;-71
2022/06/24 11:16:01;;;;;;;9.50;5.30;;;26.90;99.90;;;;;;5086986;28;20290;-71
2022/06/24 11:18:30;;;;;;;6.90;4.60;;;27.00;99.90;;;;;;5084201;28;20237;-72
2022/06/24 11:21:00;;;;;;;7.77;4.73;;;27.20;99.90;;;;;;5085396;28;20210;-72
2022/06/24 11:23:29;;;;;;;11.53;5.30;;;27.20;99.90;;;;;;5085031;28;20433;-73
2022/06/24 11:26:00;;;;;;;13.13;5.53;;;27.20;99.90;;;;;;5085567;28;20213;-73
2022/06/24 11:28:30;;;;;;;8.33;4.83;;;27.10;99.90;;;;;;5084355;28;20729;-72
2022/06/24 11:31:15;;;;;;;11.30;5.50;;;26.80;99.90;;;;;;5084515;28;20208;-71
2022/06/24 11:33:42;;;;;;;11.47;5.63;;;26.50;99.90;;;;;;5084677;28;20212;-72
2022/06/24 11:36:10;;;;;;;10.20;5.07;;;26.30;99.90;;;;;;5085623;28;20208;-72
2022/06/24 11:38:49;;;;;;;8.50;4.60;;;26.30;99.90;;;;;;5079826;28;20938;-72
2022/06/24 11:41:22;;;;;;;9.97;4.87;;;26.40;99.90;;;;;;5085071;28;20320;-72
2022/06/24 11:43:51;;;;;;;8.87;4.83;;;26.30;99.90;;;;;;5083739;28;20302;-71
2022/06/24 11:46:18;;;;;;;9.40;5.43;;;26.40;99.90;;;;;;5088541;28;20204;-71
2022/06/24 11:48:46;;;;;;;9.40;4.97;;;26.50;99.90;;;;;;5089384;28;20271;-72
2022/06/24 11:51:20;;;;;;;10.30;5.13;;;26.70;99.90;;;;;;5089429;28;20204;-72
2022/06/24 11:54:06;;;;;;;8.27;5.10;;;27.00;99.90;;;;;;5087411;28;20214;-72
2022/06/24 11:56:34;;;;;;;11.10;5.50;;;27.10;99.90;;;;;;5088193;28;20312;-71
2022/06/24 11:59:04;;;;;;;16.90;7.97;;;27.10;99.90;;;;;;5090445;28;20227;-72
2022/06/24 12:01:32;;;;;;;17.37;8.60;;;27.10;99.90;;;;;;5102981;28;20474;-74
2022/06/24 12:04:01;;;;;;;14.20;8.13;;;26.90;99.90;;;;;;5092664;28;20199;-74
2022/06/24 12:06:30;;;;;;;12.53;6.70;;;26.90;99.90;;;;;;5094116;28;20207;-76
2022/06/24 12:08:58;;;;;;;10.03;6.10;;;26.90;99.90;;;;;;5096871;28;20235;-75
2022/06/24 12:11:26;;;;;;;11.00;6.03;;;27.00;99.90;;;;;;5088113;28;20204;-74
2022/06/24 12:13:57;;;;;;;10.80;5.80;;;26.80;99.90;;;;;;5085469;28;20218;-75
2022/06/24 12:16:26;;;;;;;10.53;5.50;;;26.70;99.90;;;;;;5096191;28;20227;-74
2022/06/24 12:18:53;;;;;;;10.17;5.90;;;26.60;99.90;;;;;;5090160;28;20220;-74
2022/06/24 12:21:26;;;;;;;10.80;5.37;;;26.50;99.90;;;;;;5087599;28;20208;-76
2022/06/24 12:23:53;;;;;;;12.63;6.73;;;26.60;99.90;;;;;;5087265;28;20215;-77
2022/06/24 12:26:22;;;;;;;14.13;6.63;;;26.60;99.90;;;;;;5089295;28;20223;-76
2022/06/24 12:29:02;;;;;;;12.17;6.07;;;26.50;99.90;;;;;;5091230;28;20285;-76
2022/06/24 12:31:34;;;;;;;11.90;5.83;;;26.50;99.90;;;;;;5086236;28;20211;-78
2022/06/24 12:34:03;;;;;;;9.13;5.80;;;26.50;99.90;;;;;;5092709;28;20202;-74
2022/06/24 12:36:36;;;;;;;9.90;5.90;;;26.60;99.90;;;;;;5093876;28;20211;-74
2022/06/24 12:39:06;;;;;;;9.37;6.00;;;26.70;99.90;;;;;;5094214;28;20734;-75
2022/06/24 12:41:43;;;;;;;10.77;6.67;;;26.80;99.90;;;;;;5088974;28;20209;-75
2022/06/24 12:44:10;;;;;;;11.33;6.70;;;27.00;99.90;;;;;;5089716;28;20235;-75
2022/06/24 12:52:09;;;;;;;11.93;7.07;;;27.10;99.90;;;;;;5085812;28;20759;-76
2022/06/24 12:54:36;;;;;;;11.13;6.80;;;27.10;99.90;;;;;;5087083;28;20300;-74
2022/06/24 12:57:04;;;;;;;13.47;7.93;;;27.20;99.90;;;;;;5090270;28;20281;-76
2022/06/24 12:59:31;;;;;;;12.10;7.37;;;27.10;99.90;;;;;;5088792;28;20335;-74
2022/06/24 13:01:59;;;;;;;11.83;7.17;;;27.10;99.90;;;;;;5089888;28;20212;-74
2022/06/24 13:04:26;;;;;;;11.20;6.83;;;27.10;99.90;;;;;;5088255;28;20239;-74
2022/06/24 13:06:53;;;;;;;15.30;7.40;;;27.10;99.90;;;;;;5088774;28;20212;-71
2022/06/24 13:09:20;;;;;;;9.40;6.70;;;27.10;99.90;;;;;;5088793;28;20700;-72
2022/06/24 13:11:47;;;;;;;12.40;6.37;;;27.10;99.90;;;;;;5088005;28;20208;-71
2022/06/24 13:14:14;;;;;;;10.77;6.10;;;27.00;99.90;;;;;;5088410;28;20199;-71
2022/06/24 13:16:41;;;;;;;11.03;6.10;;;27.00;99.90;;;;;;5090233;28;20208;-71
2022/06/24 13:19:09;;;;;;;11.00;5.67;;;27.30;99.90;;;;;;5089990;28;20220;-72
2022/06/24 13:21:36;;;;;;;9.23;5.73;;;27.00;99.90;;;;;;5088548;28;20227;-72
2022/06/24 13:24:03;;;;;;;10.60;5.40;;;27.20;99.90;;;;;;5082556;28;20646;-72
2022/06/24 13:26:30;;;;;;;7.73;4.70;;;27.30;99.90;;;;;;5088370;28;20207;-71
2022/06/24 13:28:57;;;;;;;7.97;4.23;;;27.70;99.90;;;;;;5090357;28;20234;-77
2022/06/24 13:31:24;;;;;;;8.07;3.87;;;28.20;99.90;;;;;;5090175;28;20215;-73
2022/06/24 13:33:51;;;;;;;7.47;3.60;;;28.50;99.90;;;;;;5087246;28;20219;-73
2022/06/24 13:36:20;;;;;;;6.60;3.50;;;28.70;99.90;;;;;;5089036;28;20214;-74
2022/06/24 13:38:49;;;;;;;6.27;3.60;;;28.70;99.90;;;;;;5087037;28;20275;-74
2022/06/24 13:41:16;;;;;;;7.60;3.67;;;28.80;99.90;;;;;;5091210;28;20211;-75
2022/06/24 13:43:45;;;;;;;7.23;3.47;;;28.70;99.90;;;;;;5096491;28;20541;-74
2022/06/24 13:46:12;;;;;;;11.43;4.13;;;28.50;99.90;;;;;;5090909;27;20284;-74
2022/06/24 13:48:39;;;;;;;9.00;3.80;;;28.20;99.90;;;;;;5094465;28;20229;-76
2022/06/24 13:51:06;;;;;;;7.03;4.10;;;28.10;99.90;;;;;;5090890;28;20892;-74
2022/06/24 13:53:34;;;;;;;10.50;4.70;;;28.10;99.90;;;;;;5087656;28;20232;-74
2022/06/24 13:56:01;;;;;;;8.13;4.13;;;28.20;99.90;;;;;;5084264;28;20205;-71
2022/06/24 13:58:28;;;;;;;7.50;3.20;;;28.40;99.90;;;;;;5096592;28;20217;-71
2022/06/24 14:00:56;;;;;;;6.60;3.53;;;28.40;99.90;;;;;;5091703;28;20206;-72
2022/06/24 14:03:23;;;;;;;7.13;3.40;;;28.40;99.90;;;;;;5096335;28;20226;-72